ADDS METAR Data INFO
IDs: Format: Raw Decoded Include TAF

Data at: 0103 UTC 24 Aug 2017

KSPS 240052Z 06011KT 10SM FEW040 FEW250 28/20 A2995 RMK AO2 SLP130 T02780200
KSPS 232352Z 03012KT 10SM FEW041 29/20 A2994 RMK AO2 SLP125 T02940200 10311 20278 56014
KSPS 232252Z 04013G17KT 10SM SCT041 31/21 A2995 RMK AO2 SLP129 T03060206
KSPS 232152Z 03012KT 10SM FEW041 BKN050 BKN090 30/21 A2996 RMK AO2 SLP133 T03000206
KSPS 232052Z 03009KT 10SM BKN039 31/21 A2998 RMK AO2 SLP138 T03110211 58026
KSPS 231952Z 00000KT 10SM BKN040 29/20 A3001 RMK AO2 SLP149 T02940200
KSPS 231852Z VRB04KT 10SM BKN035 OVC044 29/21 A3004 RMK AO2 SLP159 T02890206
KSPS 231840Z 05003KT 10SM FEW028 BKN036 OVC043 28/21 A3004 RMK AO2 T02780206
KSPS 231827Z 02006KT 10SM BKN028 BKN036 OVC043 28/21 A3005 RMK AO2 T02780211
KSPS 231752Z 03003KT 10SM OVC032 28/21 A3006 RMK AO2 SLP167 T02780206 10283 20222 58007
KSPS 231652Z VRB03KT 10SM SCT019 BKN026 27/21 A3008 RMK AO2 SLP172 T02670211
KSPS 231552Z 05008KT 10SM BKN010 26/21 A3008 RMK AO2 SLP173 T02560206
KSPS 231549Z 05006KT 10SM BKN010 26/21 A3008 RMK AO2
KSPS 231452Z 08007KT 10SM BKN008 24/21 A3008 RMK AO2 SLP173 T02390211 53007
KSPS 231412Z 07007KT 10SM OVC008 23/21 A3008 RMK AO2 T02330211
KSPS 231352Z 04009KT 10SM SCT010 BKN120 23/21 A3007 RMK AO2 SLP170 T02280211
KSPS 231252Z 02006KT 10SM SCT010 BKN070 22/21 A3006 RMK AO2 SLP166 T02220211
KSPS 231226Z 03008KT 10SM SCT007 BKN060 22/21 A3005 RMK AO2 T02220206
KSPS 231152Z 03009KT 10SM BKN007 OVC012 22/21 A3006 RMK AO2 CIG 004V009 SLP164 70002 T02220211 10222 20217 53005
KSPS 231124Z 01008KT 10SM BKN005 OVC110 22/21 A3005 RMK AO2 CIG 004V008 T02220211
KSPS 231052Z 03004KT 10SM SCT005 OVC110 22/21 A3004 RMK AO2 SLP159 T02170211
KSPS 230952Z 04005KT 10SM BKN110 22/21 A3004 RMK AO2 SLP158 T02170206
KSPS 230852Z AUTO 04005KT 10SM FEW060 22/21 A3004 RMK AO2 SLP159 T02170206 58009
KSPS 230752Z AUTO 14007KT 10SM BKN065 22/21 A3006 RMK AO2 SLP165 T02170206
KSPS 230652Z AUTO 11009KT 10SM CLR 22/21 A3006 RMK AO2 SLP164 T02220211
KSPS 230552Z AUTO 03007KT 10SM FEW060 SCT090 22/21 A3007 RMK AO2 SLP168 P0001 60002 T02220211 10317 20222 403440211 50013
KSPS 230452Z AUTO 05006KT 10SM BKN060 BKN080 BKN100 23/22 A3007 RMK AO2 LTG DSNT ALQDS RAB32E50 SLP169 P0001 T02280217
KSPS 230430Z AUTO 04017KT 10SM OVC060 24/22 A3007 RMK AO2 LTG DSNT ALQDS T02440217
KSPS 230402Z AUTO 35015KT 10SM VCTS OVC070 25/21 A3005 RMK AO2 LTG DSNT ALQDS T02500211
KSPS 230352Z AUTO 02016KT 10SM OVC070 25/22 A3006 RMK AO2 LTG DSNT NE-S SLP163 T02500217
KSPS 230311Z AUTO 30014KT 10SM VCTS FEW100 FEW120 25/21 A3004 RMK AO2 LTG DSNT N AND NE T02500211
KSPS 230252Z AUTO 29013KT 10SM FEW070 FEW090 SCT110 26/21 A3003 RMK AO2 LTG DSNT N AND NE SLP155 T02610211 53017
KSPS 230152Z 28019G24KT 10SM SCT090 SCT110 26/21 A3001 RMK AO2 PK WND 28028/0142 SLP148 T02610211
KSPS 230052Z 00000KT 10SM FEW050 SCT090 BKN110 30/21 A2997 RMK AO2 LTG DSNT W SLP134 T03000211
KSPS 222352Z 12007KT 10SM FEW050 BKN100 BKN250 32/20 A2998 RMK AO2 SLP138 60000 T03170200 10344 20300 55006
KSPS 222252Z 11006KT 10SM FEW050 SCT100 BKN250 33/19 A2997 RMK AO2 SLP135 T03330194
KSPS 222152Z 10004KT 10SM FEW050 SCT100 BKN250 33/20 A2998 RMK AO2 SLP138 T03330200
KSPS 222052Z 27003KT 10SM SCT095 BKN110 33/21 A3000 RMK AO2 RAE1953 SLP143 P0000 60000 T03330206 58019
KSPS 221952Z 22006KT 10SM -RA FEW033 SCT050 BKN070 31/21 A3003 RMK AO2 RAB22 SLP156 P0000 T03060211
KSPS 221852Z 23012KT 10SM FEW095 33/19 A3005 RMK AO2 SLP159 T03280194
KSPS 221752Z 25006KT 10SM SCT095 33/21 A3006 RMK AO2 SLP161 T03280206 10328 20211 50002
KSPS 221652Z 24009KT 10SM FEW090 32/20 A3007 RMK AO2 SLP167 T03220200
KSPS 221552Z 25008KT 10SM BKN120 31/19 A3006 RMK AO2 SLP164 T03110194
KSPS 221452Z 22008KT 10SM BKN120 29/20 A3005 RMK AO2 SLP160 T02940200 51007
KSPS 221352Z 22010KT 10SM BKN120 27/19 A3004 RMK AO2 SLP159 T02720194